CheckWX is a tool to help pilots better visualize weather data.  It is not intended as a substitute for an official pre-flight weather briefing.

12:25:24 UTC

KASW METAR
Warsaw Municipal Airport
Warsaw, Indiana, USA
Current

10 mins ago

KASW 181215Z AUTO 02005KT 7SM -SN SCT034 OVC085 M06/M07 A3006 RMK AO2
Observed
Feb-18 @ 12:15 UTC
Wind
  • 020° at 5 KTS
Visibility
7 SM
Flight Rules
VFR
Conditions
Light Snow
Cloud Levels
  • Scattered at 3,400' AGL
  • Overcast at 8,500' AGL
Temperature
-6°C / 21°F
Dewpoint
-7°C / 19°F
Humidity
93%
Altimeter
30.06" Hg
Pressure
1017.92 hPa
Previous

30 mins ago

KASW 181155Z AUTO 01003KT 5SM -SN BKN030 OVC085 M06/M07 A3005 RMK AO2
Observed
Feb-18 @ 11:55 UTC
Wind
  • 010° at 3 KTS
Visibility
5 SM
Flight Rules
MVFR
Conditions
Light Snow
Cloud Levels
  • Broken at 3,000' AGL
  • Overcast at 8,500' AGL
Temperature
-6°C / 21°F
Dewpoint
-7°C / 19°F
Humidity
93%
Altimeter
30.05" Hg
Pressure
1017.62 hPa
Previous

50 mins ago

KASW 181135Z AUTO 01004KT 7SM -SN OVC030 M05/M07 A3004 RMK AO2
Observed
Feb-18 @ 11:35 UTC
Wind
  • 010° at 4 KTS
Visibility
7 SM
Flight Rules
MVFR
Conditions
Light Snow
Cloud Levels
  • Overcast at 3,000' AGL
Temperature
-5°C / 23°F
Dewpoint
-7°C / 19°F
Humidity
86%
Altimeter
30.04" Hg
Pressure
1017.32 hPa